Time;durP1;ratioP1;P1;durP2;ratioP2;P2;SDS_P1;SDS_P2;PMS_P1;PMS_P2;Temp;Humidity;BMP_temperature;BMP_pressure;BME280_temperature;BME280_humidity;BME280_pressure;Samples;Min_cycle;Max_cycle;Signal;HPM_P1;HPM_P2
2022/02/16 00:02:11;;;;;;;8.35;7.30;;;8.90;76.10;;;;;;5009988;28;20037;-71
2022/02/16 00:04:38;;;;;;;10.68;7.38;;;8.80;76.20;;;;;;5010939;28;20029;-71
2022/02/16 00:07:04;;;;;;;8.52;7.63;;;8.80;76.20;;;;;;5010225;28;20022;-70
2022/02/16 00:09:31;;;;;;;8.43;7.30;;;8.80;76.20;;;;;;5014660;28;20037;-70
2022/02/16 00:11:56;;;;;;;8.15;6.97;;;8.80;76.20;;;;;;4996587;28;20029;-70
2022/02/16 00:14:22;;;;;;;8.40;7.50;;;8.80;76.20;;;;;;4995715;28;20021;-70
2022/02/16 00:16:48;;;;;;;8.50;7.60;;;8.80;76.20;;;;;;5014513;28;20547;-71
2022/02/16 00:19:14;;;;;;;10.52;7.53;;;8.80;76.40;;;;;;5014200;28;20428;-71
2022/02/16 00:21:40;;;;;;;8.88;7.97;;;8.70;76.50;;;;;;4997054;28;20037;-71
2022/02/16 00:24:06;;;;;;;10.43;8.00;;;8.70;76.70;;;;;;4995875;28;20425;-71
2022/02/16 00:26:32;;;;;;;9.93;7.75;;;8.70;76.70;;;;;;5012901;28;20060;-72
2022/02/16 00:28:58;;;;;;;11.40;8.57;;;8.70;76.80;;;;;;5014383;28;20121;-71
2022/02/16 00:31:24;;;;;;;12.85;8.85;;;8.70;76.80;;;;;;4995339;28;20297;-71
2022/02/16 00:33:49;;;;;;;10.73;8.85;;;8.70;76.70;;;;;;4996730;28;20029;-70
2022/02/16 00:36:15;;;;;;;10.63;8.48;;;8.70;76.80;;;;;;5013466;28;20026;-71
2022/02/16 00:38:41;;;;;;;10.50;8.88;;;8.70;76.80;;;;;;5014596;28;20104;-70
2022/02/16 00:41:06;;;;;;;11.38;9.32;;;8.70;76.70;;;;;;5013260;28;20116;-71
2022/02/16 00:43:33;;;;;;;10.40;9.20;;;8.70;76.70;;;;;;5013916;28;20465;-71
2022/02/16 00:45:58;;;;;;;12.20;8.93;;;8.70;76.70;;;;;;4996498;28;20034;-70
2022/02/16 00:48:24;;;;;;;13.45;9.70;;;8.80;76.50;;;;;;4995258;28;20096;-71
2022/02/16 00:50:50;;;;;;;12.40;10.20;;;8.70;76.50;;;;;;4996217;28;20037;-72
2022/02/16 00:53:15;;;;;;;11.70;9.27;;;8.70;76.40;;;;;;5012687;28;20112;-71
2022/02/16 00:55:41;;;;;;;12.45;9.68;;;8.80;76.40;;;;;;5013283;28;20054;-70
2022/02/16 00:58:07;;;;;;;15.32;10.32;;;8.80;76.20;;;;;;5012784;28;20467;-70
2022/02/16 01:00:34;;;;;;;11.85;9.80;;;8.90;76.10;;;;;;5013506;28;20045;-70
2022/02/16 01:03:00;;;;;;;12.90;10.85;;;8.90;76.10;;;;;;4995647;28;20120;-71
2022/02/16 01:05:27;;;;;;;11.93;9.93;;;8.90;75.90;;;;;;5012626;28;20037;-71
2022/02/16 01:07:53;;;;;;;12.52;10.57;;;8.80;75.90;;;;;;5013621;28;20567;-71
2022/02/16 01:10:19;;;;;;;14.85;11.63;;;8.90;75.90;;;;;;4994796;28;20030;-72
2022/02/16 01:12:45;;;;;;;13.00;11.23;;;8.80;75.80;;;;;;5013544;28;20033;-71
2022/02/16 01:15:30;;;;;;;14.95;10.82;;;8.80;76.00;;;;;;5012796;28;20109;-72
2022/02/16 01:17:56;;;;;;;14.57;12.48;;;8.80;75.90;;;;;;5013255;28;20468;-70
2022/02/16 01:20:22;;;;;;;13.95;11.85;;;8.80;76.10;;;;;;5011197;28;20081;-70
2022/02/16 01:22:47;;;;;;;14.60;12.85;;;8.80;76.00;;;;;;4995503;28;20400;-70
2022/02/16 01:25:13;;;;;;;15.15;12.85;;;8.80;75.90;;;;;;4994472;28;20112;-71
2022/02/16 01:27:39;;;;;;;16.35;13.90;;;8.80;76.10;;;;;;5013207;28;20029;-71
2022/02/16 01:30:07;;;;;;;17.50;15.23;;;8.70;76.10;;;;;;5012726;28;20029;-72
2022/02/16 01:32:32;;;;;;;16.08;13.63;;;8.70;76.00;;;;;;4995303;28;20037;-70
2022/02/16 01:34:58;;;;;;;16.20;13.82;;;8.70;76.10;;;;;;5012955;28;20097;-71
2022/02/16 01:37:24;;;;;;;19.50;15.15;;;8.70;76.10;;;;;;5012286;28;20045;-71
2022/02/16 01:39:50;;;;;;;18.15;15.32;;;8.80;76.00;;;;;;5012742;28;20112;-70
2022/02/16 01:42:17;;;;;;;17.50;14.50;;;8.80;75.80;;;;;;5012109;28;20033;-70
2022/02/16 01:44:43;;;;;;;18.02;15.45;;;8.80;75.70;;;;;;5011628;28;20480;-70
2022/02/16 01:47:09;;;;;;;18.17;15.27;;;8.80;75.70;;;;;;5012243;28;20037;-71
2022/02/16 01:49:36;;;;;;;19.20;15.38;;;8.80;75.70;;;;;;5012576;28;20030;-71
2022/02/16 01:52:05;;;;;;;18.55;15.00;;;8.90;75.60;;;;;;5012506;28;20512;-71
2022/02/16 01:54:31;;;;;;;17.15;14.90;;;8.90;75.30;;;;;;4978627;28;20092;-71
2022/02/16 01:56:58;;;;;;;18.42;15.40;;;8.80;75.10;;;;;;5011884;28;20037;-71
2022/02/16 01:59:42;;;;;;;19.52;15.13;;;8.80;75.40;;;;;;5010522;28;20075;-71
2022/02/16 02:02:08;;;;;;;17.85;15.25;;;8.80;75.40;;;;;;5012022;28;20052;-71
2022/02/16 02:04:34;;;;;;;17.00;14.85;;;8.90;75.30;;;;;;5012696;28;20026;-69
2022/02/16 02:06:59;;;;;;;18.13;15.05;;;8.90;75.20;;;;;;4995008;28;20084;-70
2022/02/16 02:09:25;;;;;;;18.20;15.32;;;8.90;75.10;;;;;;5011618;28;20017;-71
2022/02/16 02:11:51;;;;;;;18.52;15.95;;;8.90;75.00;;;;;;5012314;28;20026;-70
2022/02/16 02:14:17;;;;;;;18.25;15.52;;;8.90;74.70;;;;;;5011873;28;20428;-71
2022/02/16 02:16:43;;;;;;;17.40;15.02;;;9.00;74.60;;;;;;5012264;28;20491;-70
2022/02/16 02:19:10;;;;;;;18.75;15.43;;;9.00;74.60;;;;;;5011826;28;20044;-71
2022/02/16 02:21:54;;;;;;;18.50;15.25;;;9.00;74.50;;;;;;4978511;28;20037;-70
2022/02/16 02:24:20;;;;;;;18.65;15.38;;;8.90;74.60;;;;;;5011835;28;20033;-70
2022/02/16 02:26:46;;;;;;;20.95;15.70;;;9.00;74.50;;;;;;5011631;28;20054;-70
2022/02/16 02:29:12;;;;;;;20.70;15.63;;;9.00;74.40;;;;;;5010968;28;20485;-70
2022/02/16 02:31:38;;;;;;;18.15;15.02;;;9.00;74.30;;;;;;4993898;28;20543;-70
2022/02/16 02:34:05;;;;;;;17.63;15.10;;;9.00;74.10;;;;;;5011924;28;20164;-72
2022/02/16 02:36:31;;;;;;;18.52;15.57;;;9.00;74.10;;;;;;5011965;28;20084;-70
2022/02/16 02:38:57;;;;;;;18.70;15.18;;;9.10;74.00;;;;;;5012035;28;20029;-71
2022/02/16 02:41:24;;;;;;;19.02;15.68;;;9.00;73.90;;;;;;4993873;28;20396;-71
2022/02/16 02:43:50;;;;;;;17.55;15.32;;;9.00;73.90;;;;;;4993918;28;20051;-71
2022/02/16 02:46:17;;;;;;;18.73;14.30;;;9.00;73.90;;;;;;5011504;28;20033;-70
2022/02/16 02:48:44;;;;;;;19.92;14.90;;;9.10;73.70;;;;;;5011858;28;20080;-71
2022/02/16 02:51:10;;;;;;;17.83;15.25;;;9.00;73.50;;;;;;5009979;28;20034;-70
2022/02/16 02:53:38;;;;;;;17.20;14.48;;;9.00;73.60;;;;;;4994053;28;20026;-70
2022/02/16 02:56:04;;;;;;;18.17;15.15;;;9.10;73.50;;;;;;5010515;28;20060;-71
2022/02/16 02:58:30;;;;;;;16.20;14.50;;;9.10;73.40;;;;;;5011559;28;20025;-70
2022/02/16 03:00:56;;;;;;;16.08;14.38;;;9.10;73.30;;;;;;5011451;28;20033;-70
2022/02/16 03:03:22;;;;;;;18.23;14.60;;;9.10;72.80;;;;;;4993456;28;20464;-71
2022/02/16 03:05:47;;;;;;;17.20;14.77;;;9.10;72.80;;;;;;4993981;28;20033;-71
2022/02/16 03:08:13;;;;;;;18.90;15.63;;;9.20;72.80;;;;;;5010481;28;20052;-70
2022/02/16 03:10:39;;;;;;;16.55;14.10;;;9.20;72.60;;;;;;5011568;28;20026;-70
2022/02/16 03:13:18;;;;;;;17.25;14.50;;;9.20;72.60;;;;;;4994016;28;20457;-71
2022/02/16 03:15:46;;;;;;;16.55;14.13;;;9.20;72.40;;;;;;5011546;28;20137;-70
2022/02/16 03:18:12;;;;;;;15.80;13.90;;;9.20;72.30;;;;;;5009654;28;20025;-70
2022/02/16 03:20:37;;;;;;;15.85;13.85;;;9.20;72.00;;;;;;5011313;28;20096;-69
2022/02/16 03:23:03;;;;;;;15.07;13.48;;;9.20;71.90;;;;;;4994194;28;20022;-70
2022/02/16 03:25:29;;;;;;;17.20;13.45;;;9.20;71.90;;;;;;4993117;28;20100;-69
2022/02/16 03:28:13;;;;;;;15.18;13.48;;;9.30;71.80;;;;;;5011192;28;20061;-70
2022/02/16 03:30:39;;;;;;;16.50;14.45;;;9.30;71.50;;;;;;5011054;28;20030;-71
2022/02/16 03:33:05;;;;;;;16.52;13.38;;;9.30;71.30;;;;;;5011312;28;20092;-70
2022/02/16 03:35:31;;;;;;;15.90;12.82;;;9.40;71.10;;;;;;5011165;28;20034;-70
2022/02/16 03:37:57;;;;;;;15.35;13.27;;;9.40;71.00;;;;;;5010082;28;20030;-71
2022/02/16 03:40:23;;;;;;;14.70;12.77;;;9.40;70.90;;;;;;5010703;28;20084;-71
2022/02/16 03:42:49;;;;;;;16.17;14.45;;;9.40;70.70;;;;;;5011922;28;20026;-71
2022/02/16 03:45:15;;;;;;;17.00;13.25;;;9.40;70.60;;;;;;5014799;28;20030;-71
2022/02/16 03:47:41;;;;;;;14.57;12.93;;;9.50;70.60;;;;;;4997322;28;20034;-70
2022/02/16 03:50:07;;;;;;;16.13;12.80;;;9.50;70.40;;;;;;5014427;28;20033;-72
2022/02/16 03:52:33;;;;;;;13.80;12.23;;;9.40;70.10;;;;;;5014623;28;20034;-70
2022/02/16 03:54:59;;;;;;;13.68;12.27;;;9.40;70.20;;;;;;5014829;28;20087;-70
2022/02/16 03:57:24;;;;;;;13.98;12.35;;;9.40;70.20;;;;;;5014156;28;20068;-70
2022/02/16 03:59:50;;;;;;;13.93;12.52;;;9.40;70.20;;;;;;4997060;28;20172;-69
2022/02/16 04:02:16;;;;;;;13.43;12.02;;;9.50;70.20;;;;;;5013722;28;20026;-69
2022/02/16 04:04:41;;;;;;;15.50;11.70;;;9.50;70.00;;;;;;5014759;28;20032;-70
2022/02/16 04:07:07;;;;;;;11.55;10.35;;;9.40;69.80;;;;;;4996865;28;20022;-71
2022/02/16 04:09:33;;;;;;;11.65;10.15;;;9.40;69.70;;;;;;5014305;28;20029;-70
2022/02/16 04:11:59;;;;;;;12.07;10.77;;;9.40;69.60;;;;;;4997135;28;20108;-71
2022/02/16 04:14:24;;;;;;;12.40;11.00;;;9.40;69.80;;;;;;4996358;28;20025;-69
2022/02/16 04:16:50;;;;;;;13.45;11.05;;;9.40;69.60;;;;;;4997158;28;20030;-70
2022/02/16 04:19:16;;;;;;;13.70;10.63;;;9.40;69.70;;;;;;5013307;28;20079;-72
2022/02/16 04:21:41;;;;;;;11.88;10.02;;;9.40;69.70;;;;;;4996381;28;20076;-70
2022/02/16 04:24:07;;;;;;;13.00;10.40;;;9.50;69.80;;;;;;5014190;28;20026;-72
2022/02/16 04:26:33;;;;;;;10.88;9.15;;;9.40;69.70;;;;;;5013958;28;20125;-70
2022/02/16 04:28:59;;;;;;;10.38;9.27;;;9.40;69.70;;;;;;5014490;28;20088;-70
2022/02/16 04:31:25;;;;;;;12.90;9.75;;;9.40;69.80;;;;;;4995872;28;20497;-69
2022/02/16 04:33:50;;;;;;;12.70;9.40;;;9.30;69.70;;;;;;4996640;28;20028;-71
2022/02/16 04:36:25;;;;;;;9.98;8.65;;;9.30;69.60;;;;;;4995649;28;20041;-71
2022/02/16 04:38:53;;;;;;;9.60;7.88;;;9.30;69.60;;;;;;5014420;28;20030;-70
2022/02/16 04:41:19;;;;;;;9.05;7.97;;;9.20;69.20;;;;;;5013873;28;20389;-70
2022/02/16 04:43:45;;;;;;;11.75;7.93;;;9.20;69.20;;;;;;5013888;28;20022;-70
2022/02/16 04:46:11;;;;;;;9.52;7.38;;;9.20;69.00;;;;;;5013245;28;20033;-73
2022/02/16 04:48:38;;;;;;;11.48;8.05;;;9.10;69.00;;;;;;5014016;28;20036;-70
2022/02/16 04:51:04;;;;;;;17.63;11.65;;;9.10;69.20;;;;;;4996457;28;20549;-70
2022/02/16 04:53:32;;;;;;;8.98;7.32;;;9.10;69.10;;;;;;5013097;28;20105;-71
2022/02/16 04:56:03;;;;;;;7.68;6.35;;;9.10;68.80;;;;;;4996735;28;20048;-70
2022/02/16 04:58:29;;;;;;;8.48;6.65;;;9.10;68.30;;;;;;5009960;28;20119;-70
2022/02/16 05:00:54;;;;;;;7.72;6.82;;;9.00;68.10;;;;;;5014166;28;20057;-70
2022/02/16 05:03:20;;;;;;;7.78;6.50;;;9.00;68.20;;;;;;5012794;28;20037;-70
2022/02/16 05:05:46;;;;;;;7.28;6.28;;;9.00;68.00;;;;;;5014357;28;20029;-69
2022/02/16 05:08:12;;;;;;;8.23;6.93;;;9.00;67.90;;;;;;5014281;28;20028;-71
2022/02/16 05:10:38;;;;;;;8.65;7.22;;;9.00;67.90;;;;;;5016383;28;20026;-70
2022/02/16 05:13:05;;;;;;;7.93;6.75;;;9.00;67.90;;;;;;5017269;28;20504;-69
2022/02/16 05:15:31;;;;;;;9.27;6.78;;;9.00;67.90;;;;;;5016160;28;20025;-69
2022/02/16 05:17:56;;;;;;;8.73;7.20;;;9.00;67.90;;;;;;5014559;28;20030;-70
2022/02/16 05:20:22;;;;;;;8.07;6.88;;;9.00;67.90;;;;;;5014423;28;20037;-70
2022/02/16 05:22:48;;;;;;;9.35;6.80;;;8.90;68.00;;;;;;5014969;28;20029;-70
2022/02/16 05:25:13;;;;;;;8.48;7.03;;;8.90;68.20;;;;;;5014116;28;20111;-70
2022/02/16 05:27:39;;;;;;;8.95;7.00;;;8.80;68.20;;;;;;5014758;28;20033;-70
2022/02/16 05:30:05;;;;;;;8.43;6.47;;;8.80;68.40;;;;;;5014826;28;20037;-71
2022/02/16 05:32:32;;;;;;;8.27;7.40;;;8.80;68.40;;;;;;5013756;28;20628;-70
2022/02/16 05:34:58;;;;;;;8.80;7.07;;;8.80;68.60;;;;;;5014121;28;20022;-70
2022/02/16 05:37:24;;;;;;;9.07;6.88;;;8.80;68.60;;;;;;5012426;28;20112;-69
2022/02/16 05:39:49;;;;;;;8.63;7.18;;;8.70;68.80;;;;;;5013151;28;20095;-70
2022/02/16 05:42:15;;;;;;;8.15;7.22;;;8.70;68.80;;;;;;4994833;28;20109;-70
2022/02/16 05:44:41;;;;;;;8.20;7.07;;;8.70;68.90;;;;;;4995206;28;20092;-73
2022/02/16 05:47:07;;;;;;;11.63;8.32;;;8.70;69.00;;;;;;5012635;28;20027;-70
2022/02/16 05:49:33;;;;;;;8.50;7.30;;;8.60;69.10;;;;;;5012229;28;20469;-72
2022/02/16 05:51:58;;;;;;;9.80;8.13;;;8.60;69.10;;;;;;5012632;28;20436;-70
2022/02/16 05:54:24;;;;;;;9.18;7.18;;;8.60;69.30;;;;;;5011944;28;20018;-71
2022/02/16 05:56:50;;;;;;;9.15;7.18;;;8.60;69.30;;;;;;5012477;28;20026;-71
2022/02/16 05:59:16;;;;;;;9.77;7.53;;;8.60;69.30;;;;;;5011482;28;20021;-71
2022/02/16 06:02:03;;;;;;;8.07;7.18;;;8.50;69.30;;;;;;4994763;28;20516;-72
2022/02/16 06:04:31;;;;;;;11.25;7.30;;;8.50;69.40;;;;;;5011725;28;20243;-71
2022/02/16 06:06:57;;;;;;;9.95;7.60;;;8.50;70.00;;;;;;4994445;28;20026;-71
2022/02/16 06:09:22;;;;;;;10.15;8.10;;;8.50;69.30;;;;;;5011662;28;20542;-67
2022/02/16 06:11:48;;;;;;;9.55;7.55;;;8.60;69.40;;;;;;5011636;28;20450;-70
2022/02/16 06:14:13;;;;;;;8.98;7.05;;;8.50;69.40;;;;;;5011518;28;20029;-71
2022/02/16 06:16:39;;;;;;;8.88;7.78;;;8.50;69.40;;;;;;5012011;28;20084;-70
2022/02/16 06:19:05;;;;;;;9.68;7.25;;;8.60;69.70;;;;;;5011953;28;20109;-72
2022/02/16 06:21:31;;;;;;;10.55;6.75;;;8.50;69.70;;;;;;4993926;28;20026;-69
2022/02/16 06:23:57;;;;;;;8.55;7.13;;;8.50;69.60;;;;;;5011982;28;20026;-70
2022/02/16 06:26:23;;;;;;;9.63;6.75;;;8.50;69.50;;;;;;4993382;28;20052;-67
2022/02/16 06:28:48;;;;;;;9.82;6.78;;;8.40;69.40;;;;;;5012029;28;20487;-67
2022/02/16 06:31:14;;;;;;;12.40;7.45;;;8.50;69.50;;;;;;5012224;28;20040;-66
2022/02/16 06:33:40;;;;;;;10.10;7.00;;;8.50;69.50;;;;;;5011851;28;20026;-68
2022/02/16 06:36:06;;;;;;;8.32;6.65;;;8.50;69.60;;;;;;5012098;28;20464;-68
2022/02/16 06:38:32;;;;;;;12.00;7.13;;;8.40;69.60;;;;;;5010758;28;20088;-68
2022/02/16 06:40:58;;;;;;;9.43;7.32;;;8.50;69.70;;;;;;4994211;28;20528;-67
2022/02/16 06:43:24;;;;;;;9.32;6.85;;;8.50;69.50;;;;;;5011499;28;20026;-67
2022/02/16 06:45:49;;;;;;;9.02;5.95;;;8.50;69.40;;;;;;4993822;28;20030;-68
2022/02/16 06:48:15;;;;;;;12.13;7.80;;;8.50;69.10;;;;;;5011138;28;20033;-67
2022/02/16 06:50:41;;;;;;;8.38;6.30;;;8.50;69.10;;;;;;5011846;28;20084;-67
2022/02/16 06:53:07;;;;;;;12.40;6.22;;;8.50;69.10;;;;;;4994364;28;20025;-66
2022/02/16 06:55:33;;;;;;;10.60;6.78;;;8.50;69.00;;;;;;5011072;28;20240;-67
2022/02/16 06:57:59;;;;;;;11.70;6.13;;;8.60;69.20;;;;;;5011821;28;20461;-66
2022/02/16 07:00:25;;;;;;;9.00;6.25;;;8.60;68.90;;;;;;5011219;28;20475;-67
2022/02/16 07:02:51;;;;;;;8.43;5.63;;;8.60;68.70;;;;;;4994005;28;20500;-69
2022/02/16 07:05:17;;;;;;;12.85;6.63;;;8.60;68.50;;;;;;5011345;28;20030;-66
2022/02/16 07:07:42;;;;;;;11.85;7.18;;;8.70;68.40;;;;;;5011549;28;20030;-67
2022/02/16 07:10:09;;;;;;;7.65;5.30;;;8.70;68.40;;;;;;5011208;28;20045;-68
2022/02/16 07:12:38;;;;;;;12.18;6.28;;;8.80;68.20;;;;;;5010985;28;20026;-67
2022/02/16 07:15:11;;;;;;;9.25;5.20;;;8.80;67.80;;;;;;4993930;28;20022;-67
2022/02/16 07:17:40;;;;;;;7.68;5.00;;;8.80;67.50;;;;;;5012219;28;20028;-66
2022/02/16 07:20:12;;;;;;;6.68;3.40;;;8.80;67.00;;;;;;5015314;28;20034;-67
2022/02/16 07:22:40;;;;;;;8.40;4.25;;;8.80;65.70;;;;;;4997574;28;20116;-66
2022/02/16 07:25:06;;;;;;;11.85;4.78;;;8.90;65.80;;;;;;5015172;28;20021;-66
2022/02/16 07:27:32;;;;;;;8.13;4.43;;;8.90;66.00;;;;;;4996433;28;20465;-68
2022/02/16 07:29:57;;;;;;;14.52;5.53;;;8.90;66.10;;;;;;5013813;28;20022;-67
2022/02/16 07:32:23;;;;;;;24.92;14.00;;;8.90;66.10;;;;;;4996263;28;20052;-68
2022/02/16 07:34:49;;;;;;;21.77;9.30;;;8.90;66.40;;;;;;5014222;28;20416;-67
2022/02/16 07:37:14;;;;;;;17.58;12.85;;;9.00;66.60;;;;;;5013549;28;20076;-69
2022/02/16 07:39:40;;;;;;;15.45;11.88;;;9.90;68.40;;;;;;4995342;28;20072;-66
2022/02/16 07:42:06;;;;;;;14.07;9.23;;;13.50;64.00;;;;;;5013430;28;20354;-67
2022/02/16 07:44:32;;;;;;;13.85;10.40;;;16.90;56.10;;;;;;5013523;28;20202;-68
2022/02/16 07:46:58;;;;;;;14.73;11.25;;;19.70;48.40;;;;;;4995946;28;20033;-66
2022/02/16 07:49:23;;;;;;;8.85;7.95;;;20.60;42.60;;;;;;4995008;28;20034;-66
2022/02/16 07:51:49;;;;;;;8.75;7.22;;;20.40;40.70;;;;;;5013737;28;20026;-66
2022/02/16 07:54:16;;;;;;;10.40;5.90;;;21.30;38.40;;;;;;5012380;28;20045;-76
2022/02/16 07:56:42;;;;;;;6.78;6.07;;;22.20;36.80;;;;;;5013768;28;20025;-68
2022/02/16 07:59:08;;;;;;;11.40;6.82;;;22.60;34.70;;;;;;4995481;28;20026;-67
2022/02/16 08:01:34;;;;;;;10.52;6.60;;;22.90;34.80;;;;;;4994962;28;20033;-68
2022/02/16 08:04:18;;;;;;;17.27;8.55;;;23.50;33.50;;;;;;5013744;28;20034;-68
2022/02/16 08:06:45;;;;;;;;;;;23.50;33.40;;;;;;5014036;28;20496;-67
2022/02/16 08:09:12;;;;;;;10.00;6.32;;;24.10;32.80;;;;;;4996900;28;20411;-67
2022/02/16 08:11:39;;;;;;;13.25;6.18;;;24.30;32.10;;;;;;4996710;28;20481;-68
2022/02/16 08:14:06;;;;;;;10.60;5.68;;;24.30;31.30;;;;;;4995080;28;20503;-68
2022/02/16 08:16:33;;;;;;;10.18;6.03;;;24.20;30.90;;;;;;5012354;28;20079;-68
2022/02/16 08:18:59;;;;;;;9.57;5.25;;;23.80;31.30;;;;;;5012772;28;20029;-68
2022/02/16 08:21:25;;;;;;;7.03;5.32;;;22.20;31.90;;;;;;4994306;28;20038;-68
2022/02/16 08:23:51;;;;;;;8.90;3.45;;;19.90;34.40;;;;;;5013181;28;20112;-69
2022/02/16 08:26:18;;;;;;;7.72;3.50;;;18.10;37.70;;;;;;4940311;28;1216549;-68
2022/02/16 08:28:44;;;;;;;10.07;3.88;;;16.70;40.50;;;;;;4974886;28;20117;-68
2022/02/16 08:31:12;;;;;;;13.02;4.10;;;15.70;42.60;;;;;;4974935;28;20454;-69
2022/02/16 08:33:38;;;;;;;6.43;4.35;;;14.90;44.50;;;;;;4973637;28;20054;-67
2022/02/16 08:36:05;;;;;;;11.15;5.00;;;14.20;46.50;;;;;;4974874;28;20446;-69
2022/02/16 08:38:31;;;;;;;9.60;4.10;;;13.70;48.20;;;;;;4975369;28;20038;-71
2022/02/16 08:40:57;;;;;;;11.57;5.00;;;13.30;49.50;;;;;;4974873;28;20042;-69
2022/02/16 08:43:23;;;;;;;8.90;5.18;;;12.90;50.60;;;;;;4974682;28;20034;-68
2022/02/16 08:45:49;;;;;;;8.20;5.78;;;12.60;52.10;;;;;;4974496;28;20046;-67
2022/02/16 08:48:15;;;;;;;7.30;5.00;;;12.30;53.20;;;;;;4974869;28;20034;-69
2022/02/16 08:50:41;;;;;;;13.05;5.53;;;12.00;54.50;;;;;;4974234;28;20452;-66
2022/02/16 08:53:07;;;;;;;15.43;6.97;;;11.70;55.40;;;;;;4973975;28;20336;-68
2022/02/16 08:55:32;;;;;;;9.15;5.47;;;11.50;56.30;;;;;;4973176;28;20146;-67
2022/02/16 08:57:58;;;;;;;11.02;6.13;;;11.40;57.30;;;;;;4975448;28;20039;-71
2022/02/16 09:00:24;;;;;;;10.82;5.43;;;11.20;57.90;;;;;;4957148;28;20553;-67
2022/02/16 09:02:51;;;;;;;9.23;5.32;;;11.20;58.00;;;;;;4975125;28;20102;-71
2022/02/16 09:05:18;;;;;;;9.80;5.35;;;11.10;58.50;;;;;;4974859;28;20022;-74
2022/02/16 09:07:43;;;;;;;8.80;5.18;;;11.00;58.60;;;;;;4975201;28;20031;-76
2022/02/16 09:10:11;;;;;;;11.02;5.47;;;11.00;58.60;;;;;;4973711;28;20035;-68
2022/02/16 09:12:37;;;;;;;12.25;5.88;;;11.00;58.70;;;;;;4974522;28;20027;-76
2022/02/16 09:15:05;;;;;;;10.75;5.22;;;11.10;58.40;;;;;;4973842;28;20030;-63
2022/02/16 09:17:31;;;;;;;11.73;5.22;;;11.20;58.60;;;;;;4973382;28;20026;-66
2022/02/16 09:19:57;;;;;;;10.40;5.35;;;11.30;58.40;;;;;;4974953;28;20093;-64
2022/02/16 09:22:25;;;;;;;10.38;4.40;;;11.30;58.10;;;;;;4972673;28;20534;-65
2022/02/16 09:24:51;;;;;;;6.43;4.35;;;11.30;57.90;;;;;;4974500;28;20027;-69
2022/02/16 09:27:19;;;;;;;7.78;3.78;;;11.40;57.40;;;;;;5010298;28;20061;-74
2022/02/16 09:29:49;;;;;;;8.48;4.70;;;11.40;57.10;;;;;;5013814;28;20384;-65
2022/02/16 09:32:17;;;;;;;7.63;3.83;;;11.50;56.90;;;;;;5013718;28;20026;-71
2022/02/16 09:34:45;;;;;;;9.13;3.25;;;11.50;56.30;;;;;;5012524;28;20036;-65
2022/02/16 09:37:11;;;;;;;9.32;3.30;;;11.40;56.00;;;;;;5013439;28;20105;-67
2022/02/16 09:39:37;;;;;;;7.93;2.70;;;11.40;55.80;;;;;;5013388;28;20061;-68
2022/02/16 09:42:04;;;;;;;7.63;3.20;;;11.50;55.20;;;;;;5012545;28;20026;-68
2022/02/16 09:45:00;;;;;;;8.18;3.25;;;11.50;55.30;;;;;;5013137;28;20450;-69
2022/02/16 09:47:28;;;;;;;6.10;2.90;;;11.50;55.30;;;;;;5012890;28;20044;-64
2022/02/16 09:49:54;;;;;;;10.10;3.08;;;11.50;55.20;;;;;;5013493;28;20045;-64
2022/02/16 09:52:20;;;;;;;4.47;3.25;;;11.50;55.40;;;;;;5012458;28;20041;-78
2022/02/16 09:54:46;;;;;;;5.40;2.55;;;11.60;55.60;;;;;;4995902;28;20033;-67
2022/02/16 09:57:12;;;;;;;6.03;3.40;;;11.60;55.70;;;;;;5013231;28;20113;-66
2022/02/16 09:59:38;;;;;;;6.55;3.17;;;11.60;55.80;;;;;;5012559;28;20061;-67
2022/02/16 10:02:08;;;;;;;7.88;2.58;;;11.70;55.30;;;;;;4995704;28;20033;-69
2022/02/16 10:04:36;;;;;;;4.68;2.33;;;11.80;54.70;;;;;;5012507;28;20029;-69
2022/02/16 10:07:19;;;;;;;6.07;2.97;;;11.80;54.60;;;;;;4995421;28;20029;-67
2022/02/16 10:09:45;;;;;;;5.10;2.80;;;11.80;54.70;;;;;;5012157;28;20036;-68
2022/02/16 10:12:11;;;;;;;6.93;2.45;;;11.90;54.50;;;;;;5012880;28;20389;-64
2022/02/16 10:14:38;;;;;;;9.30;3.00;;;12.00;54.80;;;;;;4994554;28;20033;-66
2022/02/16 10:17:22;;;;;;;4.90;3.03;;;12.00;54.30;;;;;;5013141;28;20022;-66
2022/02/16 10:19:50;;;;;;;;;;;12.10;54.20;;;;;;5013249;28;20030;-72
2022/02/16 10:22:17;;;;;;;7.22;2.88;;;12.20;54.30;;;;;;5012660;28;19924;-66
2022/02/16 10:24:44;;;;;;;6.45;3.00;;;12.30;54.70;;;;;;4994422;28;20060;-71
2022/02/16 10:27:12;;;;;;;4.80;2.83;;;12.30;54.90;;;;;;4994920;28;20072;-69
2022/02/16 10:29:40;;;;;;;3.67;2.45;;;12.40;54.90;;;;;;5012241;28;20030;-71
2022/02/16 10:32:06;;;;;;;5.25;2.85;;;12.50;55.30;;;;;;5012376;28;20045;-71
2022/02/16 10:34:54;;;;;;;6.50;3.20;;;12.50;55.00;;;;;;5012524;28;20026;-66
2022/02/16 10:37:28;;;;;;;6.95;3.30;;;12.70;55.10;;;;;;5012819;28;20108;-65
2022/02/16 10:40:17;;;;;;;10.75;3.10;;;12.80;54.80;;;;;;4994649;28;20034;-72
2022/02/16 10:43:04;;;;;;;6.15;2.97;;;12.80;54.30;;;;;;5011863;28;20300;-72
2022/02/16 10:45:31;;;;;;;5.75;2.97;;;12.90;53.40;;;;;;4993944;28;20026;-63
2022/02/16 10:48:01;;;;;;;5.43;2.63;;;13.10;53.00;;;;;;5011738;28;20018;-64
2022/02/16 10:50:29;;;;;;;5.18;2.70;;;13.20;52.70;;;;;;4994007;28;20116;-64
2022/02/16 10:53:04;;;;;;;13.80;3.92;;;13.20;51.30;;;;;;4994405;28;20105;-65
2022/02/16 10:55:43;;;;;;;5.15;2.60;;;13.30;50.90;;;;;;4993513;28;20036;-63
2022/02/16 10:58:12;;;;;;;5.57;2.50;;;13.30;49.90;;;;;;4993884;28;20109;-64
2022/02/16 11:00:40;;;;;;;3.15;2.28;;;13.30;49.40;;;;;;4993943;28;20068;-64
2022/02/16 11:03:07;;;;;;;9.20;2.33;;;13.40;48.60;;;;;;4994147;28;20025;-70
2022/02/16 11:05:39;;;;;;;5.97;2.95;;;13.40;47.80;;;;;;5011205;28;20033;-66
2022/02/16 11:08:12;;;;;;;4.32;2.28;;;13.40;48.10;;;;;;4994686;28;20026;-72
2022/02/16 11:10:40;;;;;;;4.93;2.80;;;13.60;47.90;;;;;;5011512;28;20465;-69
2022/02/16 11:13:07;;;;;;;3.30;2.60;;;13.50;47.40;;;;;;5011540;28;20061;-72
2022/02/16 11:15:33;;;;;;;6.25;2.20;;;13.60;47.80;;;;;;5011526;28;20026;-70
2022/02/16 11:18:23;;;;;;;7.72;2.40;;;13.60;48.70;;;;;;5011845;28;20094;-71
2022/02/16 11:21:22;;;;;;;5.15;2.35;;;13.60;48.70;;;;;;5010992;28;20132;-72
2022/02/16 11:23:50;;;;;;;3.25;2.40;;;13.70;48.80;;;;;;4981929;28;20125;-73
2022/02/16 11:29:27;;;;;;;4.60;2.42;;;13.80;47.90;;;;;;5011592;28;20037;-65
2022/02/16 11:32:15;;;;;;;5.88;2.28;;;13.90;46.80;;;;;;4993646;28;20482;-66
2022/02/16 11:34:42;;;;;;;2.55;1.52;;;14.00;45.90;;;;;;5010984;28;20075;-65
2022/02/16 11:37:09;;;;;;;3.95;1.92;;;14.10;45.10;;;;;;4993812;28;20057;-65
2022/02/16 11:39:50;;;;;;;5.78;2.42;;;14.10;45.10;;;;;;5010912;28;20041;-64
2022/02/16 11:42:19;;;;;;;9.45;2.90;;;14.20;44.70;;;;;;5010867;28;20033;-67
2022/02/16 11:44:51;;;;;;;7.20;1.63;;;14.20;45.20;;;;;;4993142;28;20061;-65
2022/02/16 11:47:35;;;;;;;3.95;1.63;;;14.30;45.10;;;;;;4993577;28;20496;-65
2022/02/16 11:50:24;;;;;;;12.23;1.92;;;14.40;44.60;;;;;;5011032;28;20041;-63
2022/02/16 11:52:50;;;;;;;6.13;2.00;;;14.40;44.50;;;;;;5000504;28;20037;-65
2022/02/16 11:55:40;;;;;;;5.82;2.47;;;14.30;44.60;;;;;;5011090;28;20030;-64
2022/02/16 11:58:15;;;;;;;7.30;1.98;;;14.60;44.30;;;;;;4993427;28;20032;-64
2022/02/16 12:00:42;;;;;;;2.58;1.42;;;15.30;42.80;;;;;;5010458;28;20030;-65
2022/02/16 12:03:08;;;;;;;4.28;1.70;;;15.20;40.50;;;;;;5010968;28;20030;-65
2022/02/16 12:05:42;;;;;;;6.63;1.83;;;15.00;40.20;;;;;;5013648;28;20028;-67
2022/02/16 12:08:11;;;;;;;4.78;1.73;;;14.90;40.50;;;;;;5014243;28;20088;-65
2022/02/16 12:10:42;;;;;;;4.72;2.58;;;14.90;41.00;;;;;;5013925;28;20051;-64
2022/02/16 12:13:08;;;;;;;5.35;1.92;;;14.90;41.20;;;;;;4996890;28;20029;-65
2022/02/16 12:15:35;;;;;;;3.85;1.67;;;14.90;40.40;;;;;;4996360;28;20022;-66
2022/02/16 12:18:02;;;;;;;9.98;2.10;;;14.90;40.70;;;;;;5013972;28;20022;-65
2022/02/16 12:20:29;;;;;;;5.72;2.17;;;15.00;40.00;;;;;;5014441;28;20069;-65
2022/02/16 12:23:05;;;;;;;10.27;3.05;;;14.90;40.50;;;;;;4996073;28;20034;-65
2022/02/16 12:25:32;;;;;;;7.15;3.22;;;14.90;40.10;;;;;;5013818;28;20521;-63
2022/02/16 12:28:03;;;;;;;3.88;1.90;;;14.90;39.70;;;;;;5014420;28;20083;-62
2022/02/16 12:30:37;;;;;;;4.50;1.92;;;14.90;40.00;;;;;;5012796;28;20094;-66
2022/02/16 12:33:16;;;;;;;;;;;14.90;40.60;;;;;;5012433;28;20030;-66
2022/02/16 12:35:42;;;;;;;3.90;2.03;;;15.00;39.70;;;;;;5013915;28;19905;-64
2022/02/16 12:38:09;;;;;;;5.82;1.67;;;15.00;40.10;;;;;;4996166;28;20033;-63
2022/02/16 12:40:35;;;;;;;6.93;1.55;;;15.10;39.60;;;;;;5013573;28;20045;-63
2022/02/16 12:43:01;;;;;;;3.65;1.45;;;15.10;39.60;;;;;;5014326;28;20026;-62
2022/02/16 12:45:27;;;;;;;4.28;1.83;;;15.20;40.00;;;;;;5014024;28;20022;-62
2022/02/16 12:47:58;;;;;;;5.60;1.65;;;15.20;40.10;;;;;;4996065;28;20366;-62
2022/02/16 12:50:24;;;;;;;12.07;2.00;;;15.30;38.90;;;;;;5014298;28;20461;-63
2022/02/16 12:52:52;;;;;;;9.80;1.90;;;15.30;38.70;;;;;;4995296;28;20022;-66